»·PEaware :: N805RJ L35-KAVX

N805RJ :: L35-KAVX

FLIGHT INFORMATION

Flight Status: Arrived
Operator: Privately registered:
United States
More flights under this callsign
Pilot: Rickie J. (22768)
Aircraft: CESSNA 172 SKYHAWK
(C172)
More flights by this aircraft type
Origin: L35 Big Bear City
United States
Destination: KAVX Catalina
United States
More flights between these airports :: More routes between these airports
Route: DAWNA V8 SLI
File this flight plan on PilotEdge
Remarks:
Altitude:
(Current/Filed)
10,500ft
Speed:
(Current/Filed)
120kts
Departed: 03-Jul-20 01:58 PM
Arrived: 03-Jul-20 02:54 PM
Distance/Time
Traveled:
93nm/0:56
Distance/Time
To Go:
Arrived

Flight Plot

Page will automatically refresh every two minutes.

Flight plan parsing failed; only flown route is shown


Map Options




Map Legend


Flown Route
Filed Route
Departure Airport
Arrival Airport
Navaid (VOR, NDB)
Fix

Horizontal Profiles

Position Reports

Time Latitude Longitude Heading Altitude Ground
Speed
03-Jul-20 13:24 34.262171 -116.853190 277 6754ft 0kts
03-Jul-20 13:25 34.262171 -116.853190 277 6754ft 0kts
03-Jul-20 13:26 34.262171 -116.853190 277 6754ft 0kts
03-Jul-20 13:27 34.262171 -116.853190 277 6754ft 0kts
03-Jul-20 13:28 34.262171 -116.853190 277 6754ft 0kts
03-Jul-20 13:29 34.262171 -116.853190 277 6754ft 0kts
03-Jul-20 13:30 34.262171 -116.853190 277 6754ft 0kts
03-Jul-20 13:31 34.262171 -116.853190 277 6754ft 0kts
03-Jul-20 13:32 34.262171 -116.853190 277 6754ft 0kts
03-Jul-20 13:33 34.262171 -116.853190 277 6754ft 0kts
03-Jul-20 13:34 34.262171 -116.853190 277 6754ft 0kts
03-Jul-20 13:35 34.262171 -116.853190 277 6754ft 0kts
03-Jul-20 13:36 34.262171 -116.853190 277 6754ft 0kts
03-Jul-20 13:37 34.262171 -116.853190 277 6754ft 0kts
03-Jul-20 13:38 34.262171 -116.853190 277 6754ft 0kts
03-Jul-20 13:39 34.262171 -116.853190 277 6754ft 0kts
03-Jul-20 13:40 34.262171 -116.853190 277 6754ft 0kts
03-Jul-20 13:41 34.262171 -116.853190 277 6754ft 0kts
03-Jul-20 13:42 34.262171 -116.853190 277 6754ft 0kts
03-Jul-20 13:44 34.262171 -116.853190 277 6754ft 0kts
03-Jul-20 13:45 34.262171 -116.853190 277 6754ft 0kts
03-Jul-20 13:46 34.262171 -116.853190 277 6754ft 0kts
03-Jul-20 13:47 34.262171 -116.853190 277 6754ft 0kts
03-Jul-20 13:48 34.262172 -116.853199 276 6754ft 0kts
03-Jul-20 13:49 34.262190 -116.853402 277 6754ft 1kts
03-Jul-20 13:50 34.263174 -116.853571 36 6754ft 7kts
03-Jul-20 13:51 34.263263 -116.850572 88 6754ft 9kts
03-Jul-20 13:52 34.263277 -116.847131 91 6754ft 3kts
03-Jul-20 13:53 34.263104 -116.846395 354 6754ft 0kts
03-Jul-20 13:54 34.263104 -116.846395 354 6754ft 0kts
03-Jul-20 13:55 34.263201 -116.846413 349 6754ft 3kts
03-Jul-20 13:56 34.263376 -116.846429 358 6754ft 0kts
03-Jul-20 13:57 34.263798 -116.848762 269 6754ft 28kts
03-Jul-20 13:58 34.263763 -116.877608 269 6993ft 94kts
03-Jul-20 13:58 34.264006 -116.902914 268 7510ft 82kts
03-Jul-20 14:00 34.264232 -116.930976 268 8130ft 68kts
03-Jul-20 14:01 34.265165 -116.955942 268 8443ft 87kts
03-Jul-20 14:01 34.266055 -116.981675 268 8688ft 100kts
03-Jul-20 14:02 34.266047 -117.015490 260 8984ft 106kts
03-Jul-20 14:04 34.264768 -117.056728 264 9319ft 109kts
03-Jul-20 14:04 34.264832 -117.087021 264 9562ft 110kts
03-Jul-20 14:05 34.257313 -117.120302 227 9856ft 103kts
03-Jul-20 14:07 34.234734 -117.149461 222 10197ft 102kts
03-Jul-20 14:07 34.218154 -117.169584 222 10440ft 102kts
03-Jul-20 14:08 34.197220 -117.194863 222 10505ft 114kts
03-Jul-20 14:09 34.174345 -117.222471 222 10347ft 125kts
03-Jul-20 14:10 34.151234 -117.250357 222 10326ft 118kts
03-Jul-20 14:11 34.129172 -117.276936 222 10408ft 114kts
03-Jul-20 14:12 34.107729 -117.302746 222 10498ft 113kts
03-Jul-20 14:13 34.085779 -117.329152 222 10502ft 117kts
03-Jul-20 14:14 34.063600 -117.355822 222 10503ft 118kts
03-Jul-20 14:15 34.041559 -117.382277 222 10502ft 118kts
03-Jul-20 14:16 34.018871 -117.409462 222 10502ft 119kts
03-Jul-20 14:17 33.996591 -117.436164 222 10495ft 120kts
03-Jul-20 14:18 33.973346 -117.464016 223 10506ft 118kts
03-Jul-20 14:19 33.950187 -117.491736 222 10502ft 119kts
03-Jul-20 14:20 33.926736 -117.519790 222 10501ft 119kts
03-Jul-20 14:21 33.912594 -117.554364 247 10502ft 122kts
03-Jul-20 14:22 33.902155 -117.593065 248 10502ft 122kts
03-Jul-20 14:23 33.892424 -117.630352 249 10504ft 123kts
03-Jul-20 14:24 33.883545 -117.664627 248 10505ft 124kts
03-Jul-20 14:25 33.874008 -117.701480 248 10505ft 124kts
03-Jul-20 14:26 33.865598 -117.733970 248 10506ft 125kts
03-Jul-20 14:27 33.857429 -117.766733 249 10504ft 125kts
03-Jul-20 14:28 33.849438 -117.798595 248 10504ft 125kts
03-Jul-20 14:29 33.841386 -117.829894 248 10504ft 124kts
03-Jul-20 14:30 33.834209 -117.857752 249 10504ft 123kts
03-Jul-20 14:31 33.827529 -117.883628 248 10504ft 123kts
03-Jul-20 14:32 33.820586 -117.910496 249 10504ft 123kts
03-Jul-20 14:33 33.814306 -117.934755 248 10504ft 123kts
03-Jul-20 14:34 33.808169 -117.958509 248 10504ft 123kts
03-Jul-20 14:35 33.797856 -117.998288 248 10504ft 123kts
03-Jul-20 14:36 33.787353 -118.038760 248 10504ft 123kts
03-Jul-20 14:37 33.765848 -118.070857 218 10504ft 120kts
03-Jul-20 14:38 33.738898 -118.097250 216 10505ft 120kts
03-Jul-20 14:39 33.710167 -118.124787 216 10312ft 130kts
03-Jul-20 14:40 33.680070 -118.153609 216 10187ft 125kts
03-Jul-20 14:41 33.649542 -118.180577 212 10079ft 124kts
03-Jul-20 14:42 33.617293 -118.205879 211 9718ft 135kts
03-Jul-20 14:43 33.582622 -118.232957 211 8841ft 135kts
03-Jul-20 14:44 33.554092 -118.256557 213 8028ft 107kts
03-Jul-20 14:45 33.532947 -118.274894 214 7220ft 77kts
03-Jul-20 14:46 33.514648 -118.292091 215 6444ft 75kts
03-Jul-20 14:47 33.496367 -118.309309 215 5668ft 76kts
03-Jul-20 14:48 33.478327 -118.326258 215 4949ft 74kts
03-Jul-20 14:49 33.460530 -118.342966 215 4284ft 73kts
03-Jul-20 14:50 33.443188 -118.359961 219 3628ft 74kts
03-Jul-20 14:51 33.426455 -118.380023 226 2857ft 79kts
03-Jul-20 14:52 33.412234 -118.403522 231 2017ft 77kts
03-Jul-20 14:53 33.402871 -118.419346 234 1605ft 11kts
03-Jul-20 14:54 33.402346 -118.419553 53 1605ft 2kts
03-Jul-20 14:55 33.403382 -118.417792 56 1605ft 9kts
03-Jul-20 14:56 33.403212 -118.415496 59 1605ft 2kts
03-Jul-20 14:57 33.403250 -118.415459 328 1605ft 0kts
03-Jul-20 14:58 33.403250 -118.415459 328 1605ft 0kts
03-Jul-20 14:59 33.403250 -118.415459 328 1605ft 0kts
03-Jul-20 15:00 33.403250 -118.415459 328 1605ft 0kts

Navigation Log

Ident Type
Flight plan parsing failed, navigation log unavailable